createdAt,value
2023-06-25T00:01:50.532Z,12.64
2023-06-25T00:04:17.296Z,12.56
2023-06-25T00:06:43.962Z,12.52
2023-06-25T00:09:10.658Z,12.51
2023-06-25T00:11:37.292Z,12.50
2023-06-25T00:14:04.844Z,12.46
2023-06-25T00:16:31.521Z,12.42
2023-06-25T00:18:58.157Z,12.38
2023-06-25T00:21:24.899Z,12.35
2023-06-25T00:23:51.539Z,12.29
2023-06-25T00:26:18.357Z,12.25
2023-06-25T00:28:45.985Z,12.14
2023-06-25T00:31:15.727Z,12.10
2023-06-25T00:33:45.129Z,12.04
2023-06-25T00:36:11.798Z,12.01
2023-06-25T00:38:40.356Z,11.96
2023-06-25T00:41:09.863Z,11.94
2023-06-25T00:43:42.305Z,11.94
2023-06-25T00:46:13.967Z,11.91
2023-06-25T00:48:47.143Z,11.88
2023-06-25T00:51:19.179Z,11.84
2023-06-25T00:53:46.612Z,11.79
2023-06-25T00:56:13.522Z,11.71
2023-06-25T00:58:40.917Z,11.66
2023-06-25T01:01:16.872Z,11.62
2023-06-25T01:03:55.868Z,11.55
2023-06-25T01:06:30.627Z,11.55
2023-06-25T01:09:01.069Z,11.48
2023-06-25T01:11:29.620Z,11.47
2023-06-25T01:13:56.532Z,11.43
2023-06-25T01:16:23.534Z,11.46
2023-06-25T01:19:03.296Z,11.42
2023-06-25T01:21:31.922Z,11.41
2023-06-25T01:23:58.765Z,11.43
2023-06-25T01:26:25.364Z,11.47
2023-06-25T01:28:56.661Z,11.44
2023-06-25T01:31:25.885Z,11.41
2023-06-25T01:33:53.079Z,11.36
2023-06-25T01:36:19.705Z,11.35
2023-06-25T01:38:46.384Z,11.28
2023-06-25T01:41:13.764Z,11.30
2023-06-25T01:43:40.421Z,11.29
2023-06-25T01:46:07.032Z,11.28
2023-06-25T01:48:34.606Z,11.22
2023-06-25T01:51:01.297Z,11.22
2023-06-25T01:53:27.982Z,11.23
2023-06-25T01:55:54.582Z,11.21
2023-06-25T01:58:21.319Z,11.15
2023-06-25T02:00:48.858Z,11.13
2023-06-25T02:03:15.539Z,11.11
2023-06-25T02:05:43.217Z,11.07
2023-06-25T02:08:10.154Z,11.00
2023-06-25T02:10:36.867Z,10.94
2023-06-25T02:13:04.286Z,10.92
2023-06-25T02:15:32.388Z,10.85
2023-06-25T02:17:59.224Z,10.82
2023-06-25T02:20:25.897Z,10.80
2023-06-25T02:22:53.097Z,10.80
2023-06-25T02:25:19.744Z,10.73
2023-06-25T02:27:46.413Z,10.69
2023-06-25T02:30:13.674Z,10.64
2023-06-25T02:32:40.304Z,10.63
2023-06-25T02:35:07.363Z,10.60
2023-06-25T02:37:33.924Z,10.56
2023-06-25T02:40:00.591Z,10.50
2023-06-25T02:42:27.250Z,10.46
2023-06-25T02:44:53.816Z,10.47
2023-06-25T02:47:20.390Z,10.46
2023-06-25T02:49:47.026Z,10.46
2023-06-25T02:52:13.660Z,10.45
2023-06-25T02:54:40.228Z,10.45
2023-06-25T02:57:06.807Z,10.48
2023-06-25T02:59:33.367Z,10.48
2023-06-25T03:01:59.993Z,10.50
2023-06-25T03:04:26.671Z,10.46
2023-06-25T03:06:53.331Z,10.46
2023-06-25T03:09:19.982Z,10.51
2023-06-25T03:11:46.698Z,10.53
2023-06-25T03:14:29.813Z,10.57
2023-06-25T03:17:01.229Z,10.64
2023-06-25T03:19:27.860Z,10.68
2023-06-25T03:21:54.447Z,10.71
2023-06-25T03:24:21.053Z,10.79
2023-06-25T03:26:47.703Z,10.86
2023-06-25T03:29:14.400Z,10.89
2023-06-25T03:31:40.981Z,10.91
2023-06-25T03:34:07.637Z,10.91
2023-06-25T03:36:34.535Z,10.87
2023-06-25T03:39:01.367Z,10.85
2023-06-25T03:41:27.973Z,10.86
2023-06-25T03:43:54.533Z,10.93
2023-06-25T03:46:21.174Z,10.99
2023-06-25T03:48:47.791Z,11.06
2023-06-25T03:51:14.462Z,11.12
2023-06-25T03:53:41.510Z,11.23
2023-06-25T03:56:08.282Z,11.32
2023-06-25T03:58:35.508Z,11.39
2023-06-25T04:01:02.179Z,11.46
2023-06-25T04:03:28.892Z,11.50
2023-06-25T04:05:55.461Z,11.53
2023-06-25T04:08:22.168Z,11.56
2023-06-25T04:10:48.750Z,11.57
2023-06-25T04:13:15.350Z,11.62
2023-06-25T04:15:41.968Z,11.67
2023-06-25T04:18:08.665Z,11.71
2023-06-25T04:20:35.410Z,11.75
2023-06-25T04:23:02.059Z,11.81
2023-06-25T04:25:28.632Z,11.87
2023-06-25T04:27:56.768Z,11.91
2023-06-25T04:30:23.605Z,11.99
2023-06-25T04:32:51.086Z,12.08
2023-06-25T04:35:18.603Z,12.18
2023-06-25T04:37:45.326Z,12.30
2023-06-25T04:40:13.014Z,12.42
2023-06-25T04:42:39.619Z,12.51
2023-06-25T04:45:07.040Z,12.60
2023-06-25T04:47:33.726Z,12.70
2023-06-25T04:50:00.394Z,12.78
2023-06-25T04:52:27.128Z,12.88
2023-06-25T04:54:53.717Z,12.95
2023-06-25T04:57:20.299Z,13.04
2023-06-25T04:59:46.962Z,13.14
2023-06-25T05:02:13.587Z,13.19
2023-06-25T05:04:40.160Z,13.28
2023-06-25T05:07:07.081Z,13.40
2023-06-25T05:09:34.071Z,13.44
2023-06-25T05:12:00.669Z,13.56
2023-06-25T05:14:28.260Z,13.63
2023-06-25T05:16:54.876Z,13.76
2023-06-25T05:19:21.445Z,13.88
2023-06-25T05:21:48.036Z,13.93
2023-06-25T05:24:14.730Z,13.97
2023-06-25T05:26:41.332Z,13.98
2023-06-25T05:29:08.093Z,14.13
2023-06-25T05:31:34.774Z,14.17
2023-06-25T05:34:01.385Z,14.20
2023-06-25T05:36:30.097Z,14.21
2023-06-25T05:38:56.793Z,14.24
2023-06-25T05:41:23.402Z,14.28
2023-06-25T05:43:50.020Z,14.38
2023-06-25T05:46:16.921Z,14.42
2023-06-25T05:48:45.136Z,14.54
2023-06-25T05:51:11.805Z,14.71
2023-06-25T05:53:41.050Z,14.78
2023-06-25T05:56:07.872Z,14.88
2023-06-25T05:58:38.020Z,14.95
2023-06-25T06:01:05.227Z,14.98
2023-06-25T06:03:31.889Z,14.89
2023-06-25T06:05:59.010Z,14.99
2023-06-25T06:08:25.936Z,15.08
2023-06-25T06:10:52.627Z,15.00
2023-06-25T06:13:19.281Z,15.04
2023-06-25T06:15:45.861Z,15.14
2023-06-25T06:18:12.905Z,15.15
2023-06-25T06:20:39.580Z,15.18
2023-06-25T06:23:06.208Z,15.22
2023-06-25T06:25:32.832Z,15.29
2023-06-25T06:27:59.436Z,15.31
2023-06-25T06:30:26.045Z,15.43
2023-06-25T06:32:53.207Z,15.47
2023-06-25T06:35:20.322Z,15.49
2023-06-25T06:37:47.160Z,15.74
2023-06-25T06:40:13.813Z,15.75
2023-06-25T06:42:40.401Z,15.85
2023-06-25T06:45:07.367Z,15.83
2023-06-25T06:47:34.031Z,15.74
2023-06-25T06:50:01.599Z,15.78
2023-06-25T06:52:28.501Z,15.86
2023-06-25T06:54:55.521Z,16.02
2023-06-25T06:57:22.131Z,15.96
2023-06-25T06:59:48.805Z,15.96
2023-06-25T07:02:15.406Z,16.25
2023-06-25T07:04:42.034Z,16.28
2023-06-25T07:07:08.635Z,16.38
2023-06-25T07:09:36.514Z,16.49
2023-06-25T07:12:03.376Z,16.52
2023-06-25T07:14:30.038Z,16.64
2023-06-25T07:16:57.205Z,16.62
2023-06-25T07:19:23.831Z,16.79
2023-06-25T07:21:50.408Z,16.88
2023-06-25T07:24:17.026Z,16.90
2023-06-25T07:26:43.627Z,17.19
2023-06-25T07:29:10.217Z,17.33
2023-06-25T07:31:36.825Z,17.46
2023-06-25T07:34:03.503Z,17.54
2023-06-25T07:36:30.100Z,17.74
2023-06-25T07:38:58.859Z,17.70
2023-06-25T07:41:25.492Z,17.66
2023-06-25T07:43:52.060Z,17.58
2023-06-25T07:46:18.674Z,17.57
2023-06-25T07:48:45.336Z,18.02
2023-06-25T07:51:11.926Z,18.26
2023-06-25T07:53:38.726Z,17.83
2023-06-25T07:56:05.620Z,17.74
2023-06-25T07:58:34.550Z,17.85
2023-06-25T08:01:01.283Z,18.13
2023-06-25T08:03:28.079Z,18.35
2023-06-25T08:05:54.903Z,18.48
2023-06-25T08:08:21.551Z,18.49
2023-06-25T08:10:52.433Z,18.35
2023-06-25T08:13:19.993Z,18.62
2023-06-25T08:15:46.612Z,18.62
2023-06-25T08:18:13.219Z,18.73
2023-06-25T08:20:40.475Z,18.73
2023-06-25T08:23:07.196Z,19.12
2023-06-25T08:25:33.941Z,19.28
2023-06-25T08:28:00.547Z,19.19
2023-06-25T08:30:27.134Z,19.52
2023-06-25T08:32:53.893Z,19.31
2023-06-25T08:35:20.489Z,19.26
2023-06-25T08:37:47.141Z,19.48
2023-06-25T08:40:14.200Z,19.82
2023-06-25T08:42:44.737Z,19.84
2023-06-25T08:45:12.286Z,19.20
2023-06-25T08:47:40.779Z,19.31
2023-06-25T08:50:10.607Z,19.59
2023-06-25T08:52:39.645Z,19.75
2023-06-25T08:55:09.703Z,20.02
2023-06-25T08:57:37.562Z,19.73
2023-06-25T09:02:46.148Z,19.74
2023-06-25T09:05:28.813Z,20.13
2023-06-25T09:07:56.466Z,20.26
2023-06-25T09:10:23.875Z,20.14
2023-06-25T09:12:52.227Z,19.76
2023-06-25T09:15:23.159Z,19.82
2023-06-25T09:17:50.703Z,20.11
2023-06-25T09:20:17.388Z,20.10
2023-06-25T09:22:52.201Z,20.39
2023-06-25T09:25:20.342Z,20.37
2023-06-25T09:27:48.193Z,19.80
2023-06-25T09:30:14.810Z,19.93
2023-06-25T09:32:54.785Z,20.53
2023-06-25T09:35:26.766Z,20.63
2023-06-25T09:37:54.277Z,21.05
2023-06-25T09:40:21.274Z,21.08
2023-06-25T09:42:54.021Z,20.57
2023-06-25T09:45:22.689Z,20.42
2023-06-25T09:47:51.791Z,20.28
2023-06-25T09:50:49.995Z,20.26
2023-06-25T09:53:22.885Z,20.27
2023-06-25T09:55:51.201Z,20.38
2023-06-25T09:58:19.414Z,20.71
2023-06-25T10:00:46.238Z,20.52
2023-06-25T10:03:14.961Z,20.33
2023-06-25T10:05:42.107Z,20.55
2023-06-25T10:08:09.818Z,20.78
2023-06-25T10:10:36.674Z,20.90
2023-06-25T10:18:43.605Z,21.28
2023-06-25T10:21:19.295Z,21.05
2023-06-25T10:23:57.583Z,21.10
2023-06-25T10:26:31.616Z,21.13
2023-06-25T10:29:05.893Z,21.15
2023-06-25T10:31:44.160Z,21.18
2023-06-25T10:34:11.842Z,21.81
2023-06-25T10:36:49.857Z,21.28
2023-06-25T10:39:16.573Z,20.67
2023-06-25T10:41:47.973Z,19.90
2023-06-25T10:44:14.603Z,20.50
2023-06-25T10:46:41.207Z,21.14
2023-06-25T10:49:07.909Z,21.25
2023-06-25T10:51:35.173Z,20.63
2023-06-25T10:54:01.805Z,20.39
2023-06-25T10:56:28.432Z,20.35
2023-06-25T10:58:56.611Z,21.00
2023-06-25T11:01:23.383Z,21.62
2023-06-25T11:03:50.090Z,21.75
2023-06-25T11:06:17.245Z,21.49
2023-06-25T11:08:44.015Z,20.88
2023-06-25T11:11:11.489Z,20.98
2023-06-25T11:13:38.228Z,21.59
2023-06-25T11:16:06.394Z,21.87
2023-06-25T11:18:33.971Z,21.35
2023-06-25T11:21:05.039Z,20.87
2023-06-25T11:23:32.899Z,20.55
2023-06-25T11:26:04.368Z,21.07
2023-06-25T11:28:31.231Z,21.74
2023-06-25T11:31:01.755Z,21.72
2023-06-25T11:33:28.473Z,21.70
2023-06-25T11:36:15.243Z,21.85
2023-06-25T11:38:44.931Z,21.89
2023-06-25T11:41:11.544Z,22.12
2023-06-25T11:43:39.750Z,21.96
2023-06-25T11:46:07.063Z,21.55
2023-06-25T11:48:34.643Z,22.15
2023-06-25T11:51:07.831Z,22.25
2023-06-25T11:53:34.698Z,22.39
2023-06-25T11:56:01.516Z,21.87
2023-06-25T11:58:28.995Z,21.11
2023-06-25T12:00:55.853Z,21.20
2023-06-25T12:03:22.545Z,21.51
2023-06-25T12:05:49.234Z,21.38
2023-06-25T12:08:15.899Z,21.38
2023-06-25T12:10:42.559Z,21.66
2023-06-25T12:13:09.133Z,21.34
2023-06-25T12:15:35.948Z,21.03
2023-06-25T12:18:02.822Z,20.80
2023-06-25T12:20:29.528Z,21.07
2023-06-25T12:22:56.129Z,21.27
2023-06-25T12:25:22.761Z,21.79
2023-06-25T12:27:49.348Z,22.00
2023-06-25T12:30:16.023Z,21.76
2023-06-25T12:32:42.714Z,21.39
2023-06-25T12:35:10.579Z,21.17
2023-06-25T12:37:37.269Z,21.34
2023-06-25T12:40:06.669Z,21.30
2023-06-25T12:42:33.296Z,21.64
2023-06-25T12:44:59.917Z,21.54
2023-06-25T12:47:26.549Z,20.68
2023-06-25T12:49:53.185Z,20.33
2023-06-25T12:52:19.821Z,20.60
2023-06-25T12:54:46.384Z,21.25
2023-06-25T12:57:13.044Z,21.63
2023-06-25T12:59:39.676Z,21.03
2023-06-25T13:02:06.966Z,20.60
2023-06-25T13:04:33.817Z,20.34
2023-06-25T13:07:00.629Z,21.00
2023-06-25T13:09:28.698Z,21.75
2023-06-25T13:11:55.552Z,21.45
2023-06-25T13:14:22.135Z,21.65
2023-06-25T13:16:48.726Z,21.84
2023-06-25T13:19:16.740Z,21.62
2023-06-25T13:21:43.340Z,21.74
2023-06-25T13:24:09.946Z,21.78
2023-06-25T13:26:36.589Z,21.91
2023-06-25T13:29:03.244Z,21.85
2023-06-25T13:31:29.898Z,22.10
2023-06-25T13:33:56.670Z,22.10
2023-06-25T13:36:23.250Z,22.17
2023-06-25T13:38:49.877Z,22.05
2023-06-25T13:41:16.484Z,21.88
2023-06-25T13:43:45.122Z,21.68
2023-06-25T13:46:12.103Z,21.59
2023-06-25T13:48:38.768Z,21.92
2023-06-25T13:51:05.415Z,22.06
2023-06-25T13:53:32.109Z,22.22
2023-06-25T13:55:58.806Z,22.15
2023-06-25T13:58:25.471Z,22.41
2023-06-25T14:00:53.427Z,22.21
2023-06-25T14:03:20.543Z,22.28
2023-06-25T14:05:47.440Z,22.27
2023-06-25T14:08:14.253Z,22.84
2023-06-25T14:10:42.008Z,23.06
2023-06-25T14:13:10.554Z,22.10
2023-06-25T14:15:41.752Z,21.30
2023-06-25T14:18:10.074Z,21.18
2023-06-25T14:20:36.786Z,21.42
2023-06-25T14:23:03.426Z,21.90
2023-06-25T14:25:30.185Z,22.30
2023-06-25T14:27:58.614Z,22.69
2023-06-25T14:30:25.280Z,22.43
2023-06-25T14:32:52.005Z,22.77
2023-06-25T14:35:18.677Z,22.68
2023-06-25T14:37:45.588Z,22.42
2023-06-25T14:40:12.255Z,22.56
2023-06-25T14:42:39.046Z,22.78
2023-06-25T14:45:06.057Z,23.03
2023-06-25T14:47:33.654Z,23.54
2023-06-25T14:50:00.917Z,23.65
2023-06-25T14:52:28.849Z,23.33
2023-06-25T14:54:55.705Z,22.94
2023-06-25T14:57:22.388Z,22.72
2023-06-25T14:59:48.980Z,22.72
2023-06-25T15:02:15.708Z,22.64
2023-06-25T15:04:48.893Z,22.97
2023-06-25T15:07:19.851Z,23.42
2023-06-25T15:09:46.870Z,23.47
2023-06-25T15:12:13.472Z,23.29
2023-06-25T15:14:40.094Z,23.31
2023-06-25T15:17:06.793Z,23.74
2023-06-25T15:19:34.105Z,23.67
2023-06-25T15:22:00.881Z,23.85
2023-06-25T15:24:27.487Z,23.18
2023-06-25T15:26:54.137Z,22.45
2023-06-25T15:29:20.773Z,21.89
2023-06-25T15:31:47.395Z,21.57
2023-06-25T15:34:14.055Z,21.47
2023-06-25T15:36:40.686Z,21.89
2023-06-25T15:39:07.393Z,21.65
2023-06-25T15:41:34.727Z,21.67
2023-06-25T15:44:01.376Z,22.29
2023-06-25T15:46:28.052Z,22.23
2023-06-25T15:48:55.020Z,22.37
2023-06-25T15:51:21.812Z,22.65
2023-06-25T15:53:48.461Z,22.53
2023-06-25T15:56:15.040Z,23.09
2023-06-25T15:58:42.173Z,23.48
2023-06-25T16:01:08.856Z,23.80
2023-06-25T16:03:35.747Z,23.71
2023-06-25T16:06:02.488Z,23.59
2023-06-25T16:08:29.158Z,23.77
2023-06-25T16:10:55.880Z,23.74
2023-06-25T16:13:22.570Z,22.91
2023-06-25T16:15:49.220Z,22.79
2023-06-25T16:18:15.873Z,22.93
2023-06-25T16:20:42.721Z,23.10
2023-06-25T16:23:09.372Z,23.17
2023-06-25T16:25:36.455Z,23.26
2023-06-25T16:28:03.286Z,23.14
2023-06-25T16:30:29.884Z,23.10
2023-06-25T16:32:56.726Z,23.19
2023-06-25T16:35:23.539Z,23.76
2023-06-25T16:37:50.264Z,24.03
2023-06-25T16:40:16.910Z,24.25
2023-06-25T16:42:43.542Z,24.27
2023-06-25T16:45:10.357Z,23.74
2023-06-25T16:47:37.139Z,23.56
2023-06-25T16:50:03.966Z,23.73
2023-06-25T16:52:30.583Z,24.07
2023-06-25T16:54:57.683Z,24.86
2023-06-25T16:57:24.288Z,25.72
2023-06-25T16:59:50.959Z,26.35
2023-06-25T17:02:17.785Z,26.82
2023-06-25T17:04:44.525Z,26.93
2023-06-25T17:07:11.235Z,27.20
2023-06-25T17:09:38.087Z,27.46
2023-06-25T17:12:05.876Z,27.27
2023-06-25T17:14:33.276Z,27.17
2023-06-25T17:16:59.891Z,27.12
2023-06-25T17:19:26.501Z,27.21
2023-06-25T17:21:53.188Z,27.19
2023-06-25T17:24:19.848Z,27.24
2023-06-25T17:26:46.511Z,27.54
2023-06-25T17:29:13.149Z,27.72
2023-06-25T17:31:39.972Z,27.90
2023-06-25T17:34:06.670Z,27.36
2023-06-25T17:36:33.301Z,27.39
2023-06-25T17:39:00.689Z,27.68
2023-06-25T17:41:28.126Z,27.07
2023-06-25T17:43:57.097Z,26.69
2023-06-25T17:46:23.933Z,25.79
2023-06-25T17:48:50.782Z,23.56
2023-06-25T17:51:17.493Z,21.63
2023-06-25T17:53:44.242Z,20.52
2023-06-25T17:56:12.506Z,19.75
2023-06-25T17:58:39.199Z,19.19
2023-06-25T18:01:05.948Z,18.79
2023-06-25T18:03:35.794Z,18.40
2023-06-25T18:06:02.625Z,18.04
2023-06-25T18:08:29.243Z,17.78
2023-06-25T18:10:55.867Z,17.60
2023-06-25T18:13:22.915Z,17.38
2023-06-25T18:15:49.829Z,17.20
2023-06-25T18:18:22.195Z,17.07
2023-06-25T18:20:49.017Z,16.94
2023-06-25T18:23:15.968Z,16.88
2023-06-25T18:25:42.901Z,16.73
2023-06-25T18:28:09.813Z,16.59
2023-06-25T18:30:38.310Z,16.44
2023-06-25T18:33:05.862Z,16.28
2023-06-25T18:35:32.675Z,16.10
2023-06-25T18:37:59.255Z,15.96
2023-06-25T18:40:34.224Z,15.84
2023-06-25T18:43:00.833Z,15.75
2023-06-25T18:45:27.407Z,15.71
2023-06-25T18:47:54.039Z,15.60
2023-06-25T18:50:21.674Z,15.46
2023-06-25T18:52:48.568Z,15.38
2023-06-25T18:55:15.373Z,15.31
2023-06-25T18:57:41.960Z,15.25
2023-06-25T19:00:10.735Z,15.23
2023-06-25T19:02:37.490Z,15.17
2023-06-25T19:05:04.500Z,15.10
2023-06-25T19:07:33.040Z,14.99
2023-06-25T19:10:00.941Z,14.87
2023-06-25T19:12:27.615Z,14.78
2023-06-25T19:14:54.272Z,14.78
2023-06-25T19:17:20.953Z,14.72
2023-06-25T19:19:47.656Z,14.65
2023-06-25T19:22:14.398Z,14.61
2023-06-25T19:24:40.992Z,14.60
2023-06-25T19:27:08.702Z,14.59
2023-06-25T19:29:35.370Z,14.53
2023-06-25T19:32:02.006Z,14.48
2023-06-25T19:34:28.625Z,14.47
2023-06-25T19:36:55.380Z,14.52
2023-06-25T19:39:21.973Z,14.60
2023-06-25T19:41:48.646Z,14.61
2023-06-25T19:44:15.342Z,14.55
2023-06-25T19:46:41.999Z,14.61
2023-06-25T19:49:09.957Z,14.63
2023-06-25T19:51:39.635Z,14.56
2023-06-25T19:54:06.886Z,14.51
2023-06-25T19:56:33.474Z,14.45
2023-06-25T19:59:01.390Z,14.46
2023-06-25T20:01:28.317Z,14.47
2023-06-25T20:03:54.968Z,14.44
2023-06-25T20:06:22.562Z,14.41
2023-06-25T20:08:49.234Z,14.35
2023-06-25T20:11:16.371Z,14.36
2023-06-25T20:13:43.039Z,14.36
2023-06-25T20:16:09.700Z,14.33
2023-06-25T20:18:36.306Z,14.34
2023-06-25T20:21:03.103Z,14.32
2023-06-25T20:23:29.969Z,14.30
2023-06-25T20:25:56.767Z,14.33
2023-06-25T20:28:23.418Z,14.36
2023-06-25T20:30:50.021Z,14.39
2023-06-25T20:33:16.702Z,14.45
2023-06-25T20:35:43.363Z,14.52
2023-06-25T20:38:09.988Z,14.56
2023-06-25T20:40:36.912Z,14.58
2023-06-25T20:43:06.213Z,14.64
2023-06-25T20:45:32.898Z,14.73
2023-06-25T20:47:59.526Z,14.81
2023-06-25T20:50:26.225Z,14.78
2023-06-25T20:52:52.994Z,14.71
2023-06-25T20:55:19.589Z,14.53
2023-06-25T20:57:46.239Z,14.40
2023-06-25T21:00:13.352Z,14.37
2023-06-25T21:02:40.172Z,14.32
2023-06-25T21:05:06.980Z,14.28
2023-06-25T21:07:34.325Z,14.28
2023-06-25T21:10:00.967Z,14.25
2023-06-25T21:12:27.570Z,14.22
2023-06-25T21:14:54.157Z,14.20
2023-06-25T21:17:20.851Z,14.16
2023-06-25T21:19:47.456Z,14.15
2023-06-25T21:22:14.118Z,14.15
2023-06-25T21:24:40.695Z,14.15
2023-06-25T21:27:07.385Z,14.13
2023-06-25T21:29:33.981Z,14.07
2023-06-25T21:32:00.629Z,14.08
2023-06-25T21:34:27.230Z,14.09
2023-06-25T21:36:53.843Z,13.98
2023-06-25T21:39:20.437Z,13.85
2023-06-25T21:41:47.081Z,13.78
2023-06-25T21:44:13.710Z,13.75
2023-06-25T21:46:43.196Z,13.81
2023-06-25T21:49:10.500Z,13.92
2023-06-25T21:51:37.149Z,14.00
2023-06-25T21:54:03.742Z,14.11
2023-06-25T21:56:30.530Z,14.18
2023-06-25T21:58:57.123Z,14.21
2023-06-25T22:01:23.805Z,14.23
2023-06-25T22:03:50.502Z,14.22
2023-06-25T22:06:17.506Z,14.20
2023-06-25T22:08:44.090Z,14.09
2023-06-25T22:11:10.693Z,14.07
2023-06-25T22:13:39.204Z,14.05
2023-06-25T22:16:06.375Z,13.97
2023-06-25T22:18:33.048Z,13.93
2023-06-25T22:21:01.564Z,13.92
2023-06-25T22:23:28.269Z,13.87
2023-06-25T22:25:54.906Z,13.79
2023-06-25T22:28:21.481Z,13.79
2023-06-25T22:30:48.082Z,14.08
2023-06-25T22:33:14.745Z,14.13
2023-06-25T22:35:41.378Z,14.10
2023-06-25T22:38:08.464Z,14.08
2023-06-25T22:40:35.203Z,14.08
2023-06-25T22:43:02.685Z,14.02
2023-06-25T22:45:29.448Z,13.99
2023-06-25T22:47:56.317Z,13.98
2023-06-25T22:50:23.852Z,13.96
2023-06-25T22:52:50.445Z,13.96
2023-06-25T22:55:17.214Z,13.96
2023-06-25T22:57:44.488Z,14.00
2023-06-25T23:00:14.503Z,14.05
2023-06-25T23:02:41.230Z,14.06
2023-06-25T23:05:08.570Z,14.02
2023-06-25T23:07:35.218Z,14.00
2023-06-25T23:10:01.862Z,13.95
2023-06-25T23:12:28.538Z,13.93
2023-06-25T23:14:55.132Z,13.92
2023-06-25T23:17:22.209Z,13.91
2023-06-25T23:19:50.250Z,13.92
2023-06-25T23:22:16.873Z,13.89
2023-06-25T23:24:45.399Z,13.96
2023-06-25T23:27:14.964Z,13.99
2023-06-25T23:29:41.598Z,13.99
2023-06-25T23:32:10.052Z,13.91
2023-06-25T23:34:36.753Z,13.87
2023-06-25T23:37:04.349Z,13.83
2023-06-25T23:39:34.227Z,13.80
2023-06-25T23:42:01.006Z,13.76
2023-06-25T23:44:27.609Z,13.75
2023-06-25T23:46:54.200Z,13.74
2023-06-25T23:49:20.832Z,13.68
2023-06-25T23:51:47.402Z,13.64
2023-06-25T23:54:14.033Z,13.57
2023-06-25T23:56:40.625Z,13.46
2023-06-25T23:59:07.329Z,13.42
